Airport ICAO


18:18 UTC

8°C

Few clouds


An affordable passengers' Moving Map for your aircraft. Made for the iPad and the iPhone
More information here

EGSS Stansted


London UNITED KINGDOM   VFR


METAR EGSS 231750Z AUTO 14008KT 130V290 9999 FEW047 08/04 Q1032 0h28min

TAF EGSS 231704Z 2318/2424 05010KT 9999 FEW038 BECMG 2320/2323 VRB03KT PROB40 2402/2408 6000 BECMG 2410/2413 31010KT 1h14min





NOTAMS

OPEN

PILOT REPORTS

OPEN